Time;durP1;ratioP1;P1;durP2;ratioP2;P2;SDS_P1;SDS_P2;PMS_P1;PMS_P2;Temp;Humidity;BMP_temperature;BMP_pressure;BME280_temperature;BME280_humidity;BME280_pressure;Samples;Min_cycle;Max_cycle;Signal;HPM_P1;HPM_P2
2021/03/29 00:05:31;;;;;;;17.17;8.65;;;;;;;;;;4899331;28;20877;-58
2021/03/29 00:08:05;;;;;;;17.77;8.90;;;;;;;;;;4175542;34;20184;-58
2021/03/29 00:10:31;;;;;;;18.85;8.98;;;;;;;;;;4166741;34;20201;-58
2021/03/29 00:12:58;;;;;;;19.83;8.32;;;;;;;;;;4177714;34;20105;-58
2021/03/29 00:15:26;;;;;;;12.50;5.65;;;;;;;;;;4176896;34;20106;-58
2021/03/29 00:17:52;;;;;;;11.07;5.82;;;;;;;;;;4190242;34;20513;-58
2021/03/29 00:20:21;;;;;;;9.38;4.43;;;;;;;;;;4177380;34;20106;-58
2021/03/29 00:22:46;;;;;;;12.70;4.40;;;;;;;;;;4177639;34;20114;-58
2021/03/29 00:25:16;;;;;;;6.72;3.65;;;;;;;;;;4177285;34;20449;-60
2021/03/29 00:27:42;;;;;;;4.30;2.67;;;;;;;;;;4179122;34;20137;-60
2021/03/29 00:30:10;;;;;;;4.57;2.30;;;;;;;;;;4192262;34;20138;-61
2021/03/29 00:32:36;;;;;;;3.45;2.60;;;;;;;;;;4192231;34;20497;-61
2021/03/29 00:35:02;;;;;;;4.60;2.50;;;;;;;;;;4179525;34;20128;-60
2021/03/29 00:37:28;;;;;;;4.47;2.50;;;;;;;;;;4192081;34;20141;-60
2021/03/29 00:39:55;;;;;;;7.45;2.87;;;;;;;;;;4179681;34;20136;-61
2021/03/29 00:42:21;;;;;;;7.30;2.60;;;;;;;;;;4177432;34;20123;-61
2021/03/29 00:44:47;;;;;;;3.70;2.58;;;;;;;;;;4192028;34;20128;-61
2021/03/29 00:47:12;;;;;;;4.85;2.65;;;;;;;;;;4179210;34;20136;-60
2021/03/29 00:49:38;;;;;;;4.20;2.87;;;;;;;;;;4179431;34;20114;-61
2021/03/29 00:52:04;;;;;;;5.82;2.72;;;;;;;;;;4179337;34;20201;-60
2021/03/29 00:54:30;;;;;;;6.05;2.90;;;;;;;;;;4179512;34;20104;-60
2021/03/29 00:56:56;;;;;;;5.22;2.42;;;;;;;;;;4167949;34;20121;-60
2021/03/29 00:59:22;;;;;;;5.65;2.20;;;;;;;;;;4179287;34;20436;-60
2021/03/29 01:01:49;;;;;;;4.72;2.60;;;;;;;;;;4179325;34;20149;-60
2021/03/29 01:04:15;;;;;;;3.95;2.53;;;;;;;;;;4179210;34;20531;-61
2021/03/29 01:06:43;;;;;;;6.47;2.50;;;;;;;;;;4191807;34;20130;-60
2021/03/29 01:09:11;;;;;;;3.85;2.35;;;;;;;;;;4179426;34;20094;-60
2021/03/29 01:12:04;;;;;;;3.53;2.50;;;;;;;;;;4179234;34;20122;-60
2021/03/29 01:14:33;;;;;;;5.03;2.95;;;;;;;;;;4178912;34;20423;-60
2021/03/29 01:17:12;;;;;;;6.43;2.80;;;;;;;;;;4168135;34;20217;-60
2021/03/29 01:19:47;;;;;;;4.85;2.55;;;;;;;;;;4192109;34;20118;-60
2021/03/29 01:22:14;;;;;;;4.40;3.10;;;;;;;;;;4191748;34;20114;-60
2021/03/29 01:24:47;;;;;;;4.50;3.30;;;;;;;;;;4179131;34;20562;-60
2021/03/29 01:27:14;;;;;;;5.37;3.80;;;;;;;;;;4179517;34;20690;-60
2021/03/29 01:29:40;;;;;;;8.13;4.05;;;;;;;;;;4179181;34;20130;-60
2021/03/29 01:32:06;;;;;;;5.55;4.10;;;;;;;;;;4179078;34;20564;-60
2021/03/29 01:34:34;;;;;;;4.47;3.50;;;;;;;;;;4191667;34;20133;-60
2021/03/29 01:37:00;;;;;;;5.05;3.37;;;;;;;;;;4179198;34;20122;-60
2021/03/29 01:39:26;;;;;;;3.95;3.50;;;;;;;;;;4178421;34;20446;-61
2021/03/29 01:41:52;;;;;;;5.70;3.55;;;;;;;;;;4192001;34;20598;-60
2021/03/29 01:44:18;;;;;;;5.03;3.58;;;;;;;;;;4191835;34;20102;-60
2021/03/29 01:46:45;;;;;;;6.60;3.60;;;;;;;;;;4191574;34;20129;-60
2021/03/29 01:49:11;;;;;;;5.10;3.20;;;;;;;;;;4191936;34;20197;-60
2021/03/29 01:51:36;;;;;;;5.70;3.12;;;;;;;;;;4191705;34;20530;-60
2021/03/29 01:54:02;;;;;;;4.07;2.78;;;;;;;;;;4178737;34;20102;-60
2021/03/29 01:56:28;;;;;;;4.03;2.83;;;;;;;;;;4191793;34;20106;-61
2021/03/29 01:58:54;;;;;;;4.43;2.97;;;;;;;;;;4191598;34;20185;-60
2021/03/29 02:01:20;;;;;;;4.62;3.40;;;;;;;;;;4191407;34;20149;-59
2021/03/29 02:03:46;;;;;;;7.50;4.10;;;;;;;;;;4191504;34;20114;-60
2021/03/29 02:06:12;;;;;;;6.60;3.15;;;;;;;;;;4178771;34;20138;-60
2021/03/29 02:08:39;;;;;;;5.62;4.05;;;;;;;;;;4167583;34;20125;-60
2021/03/29 02:11:05;;;;;;;6.50;3.67;;;;;;;;;;4178591;34;20122;-60
2021/03/29 02:13:36;;;;;;;5.03;3.15;;;;;;;;;;4178595;34;20301;-61
2021/03/29 02:16:03;;;;;;;4.47;3.35;;;;;;;;;;4191378;34;20104;-60
2021/03/29 02:18:36;;;;;;;6.30;3.17;;;;;;;;;;4178797;34;20537;-60
2021/03/29 02:21:05;;;;;;;6.35;3.17;;;;;;;;;;4191539;34;20091;-60
2021/03/29 02:23:31;;;;;;;6.75;3.53;;;;;;;;;;4191423;34;20129;-60
2021/03/29 02:25:58;;;;;;;4.35;3.08;;;;;;;;;;4167130;34;20137;-61
2021/03/29 02:28:24;;;;;;;4.50;2.90;;;;;;;;;;4178480;34;20132;-60
2021/03/29 02:30:50;;;;;;;4.82;3.30;;;;;;;;;;4178449;34;20142;-60
2021/03/29 02:33:16;;;;;;;7.32;4.40;;;;;;;;;;4178416;34;20118;-60
2021/03/29 02:35:42;;;;;;;5.03;2.78;;;;;;;;;;4191354;34;20133;-64
2021/03/29 02:38:14;;;;;;;9.13;3.70;;;;;;;;;;4191146;34;20148;-59
2021/03/29 02:40:40;;;;;;;6.47;3.90;;;;;;;;;;4191182;34;20779;-60
2021/03/29 02:43:07;;;;;;;6.25;4.20;;;;;;;;;;4191378;34;20451;-60
2021/03/29 02:45:34;;;;;;;5.32;3.67;;;;;;;;;;4178140;34;20565;-60
2021/03/29 02:48:04;;;;;;;6.03;3.30;;;;;;;;;;4178533;34;20592;-58
2021/03/29 02:50:31;;;;;;;6.30;3.10;;;;;;;;;;4190895;34;20557;-59
2021/03/29 02:52:59;;;;;;;5.50;2.72;;;;;;;;;;4191068;34;20449;-59
2021/03/29 02:55:27;;;;;;;5.62;2.75;;;;;;;;;;4190924;34;20126;-59
2021/03/29 02:57:53;;;;;;;6.72;2.80;;;;;;;;;;4191045;34;20095;-60
2021/03/29 03:00:23;;;;;;;6.72;3.30;;;;;;;;;;4178078;34;20517;-60
2021/03/29 03:02:49;;;;;;;4.05;2.72;;;;;;;;;;4190992;34;20095;-60
2021/03/29 03:05:15;;;;;;;3.85;2.87;;;;;;;;;;4178235;34;20110;-60
2021/03/29 03:07:41;;;;;;;5.53;2.67;;;;;;;;;;4190834;34;20524;-60
2021/03/29 03:10:09;;;;;;;9.90;3.53;;;;;;;;;;4178277;34;20114;-61
2021/03/29 03:12:37;;;;;;;7.85;2.83;;;;;;;;;;4190852;34;20192;-60
2021/03/29 03:15:08;;;;;;;5.22;3.20;;;;;;;;;;4178154;34;20294;-59
2021/03/29 03:17:34;;;;;;;6.35;3.15;;;;;;;;;;4190866;34;20161;-62
2021/03/29 03:20:00;;;;;;;5.95;3.15;;;;;;;;;;4190937;34;20434;-60
2021/03/29 03:22:26;;;;;;;4.60;3.30;;;;;;;;;;4189921;34;20814;-59
2021/03/29 03:24:52;;;;;;;5.47;3.35;;;;;;;;;;4175730;34;20527;-60
2021/03/29 03:27:18;;;;;;;8.95;4.12;;;;;;;;;;4188526;34;20221;-61
2021/03/29 03:29:44;;;;;;;6.25;3.50;;;;;;;;;;4188594;34;20118;-60
2021/03/29 03:32:13;;;;;;;5.75;3.17;;;;;;;;;;4188711;34;20114;-61
2021/03/29 03:34:40;;;;;;;6.80;4.05;;;;;;;;;;4188732;34;20277;-60
2021/03/29 03:37:06;;;;;;;8.15;4.55;;;;;;;;;;4188748;34;20122;-59
2021/03/29 03:39:32;;;;;;;6.97;3.78;;;;;;;;;;4178291;34;20145;-61
2021/03/29 03:41:58;;;;;;;8.38;3.85;;;;;;;;;;4166340;34;20140;-59
2021/03/29 03:44:24;;;;;;;7.00;4.03;;;;;;;;;;4166590;34;20328;-59
2021/03/29 03:46:50;;;;;;;12.43;3.85;;;;;;;;;;4177578;34;20519;-59
2021/03/29 03:49:19;;;;;;;11.07;3.40;;;;;;;;;;4177798;34;20209;-59
2021/03/29 03:51:44;;;;;;;6.95;3.80;;;;;;;;;;4166516;34;20129;-60
2021/03/29 03:54:11;;;;;;;7.47;3.70;;;;;;;;;;4166390;34;20089;-60
2021/03/29 03:56:37;;;;;;;5.97;3.70;;;;;;;;;;4177695;34;20793;-59
2021/03/29 03:59:03;;;;;;;8.57;3.50;;;;;;;;;;4166541;34;20203;-59
2021/03/29 04:01:33;;;;;;;5.78;3.28;;;;;;;;;;4190734;34;20128;-60
2021/03/29 04:03:59;;;;;;;9.40;3.65;;;;;;;;;;4168631;34;20541;-61
2021/03/29 04:06:26;;;;;;;5.85;3.20;;;;;;;;;;4192310;34;20212;-60
2021/03/29 04:08:51;;;;;;;9.15;3.92;;;;;;;;;;4192665;34;20141;-61
2021/03/29 04:11:23;;;;;;;6.18;3.60;;;;;;;;;;4192450;34;20140;-59
2021/03/29 04:13:48;;;;;;;7.50;3.47;;;;;;;;;;4192451;34;20139;-59
2021/03/29 04:16:14;;;;;;;13.82;3.97;;;;;;;;;;4192310;34;20542;-60
2021/03/29 04:18:40;;;;;;;7.45;4.70;;;;;;;;;;4192436;34;20134;-60
2021/03/29 04:21:07;;;;;;;6.22;4.05;;;;;;;;;;4192223;34;20192;-60
2021/03/29 04:23:34;;;;;;;10.50;4.15;;;;;;;;;;4192558;34;20529;-60
2021/03/29 04:25:59;;;;;;;6.78;3.62;;;;;;;;;;4192260;34;20119;-60
2021/03/29 04:28:25;;;;;;;8.27;4.35;;;;;;;;;;4192312;34;20537;-60
2021/03/29 04:30:51;;;;;;;9.25;3.80;;;;;;;;;;4179412;34;20149;-61
2021/03/29 04:33:19;;;;;;;6.12;2.90;;;;;;;;;;4192114;34;20125;-61
2021/03/29 04:35:45;;;;;;;5.45;3.15;;;;;;;;;;4192365;34;20106;-61
2021/03/29 04:38:11;;;;;;;16.85;10.18;;;;;;;;;;4192267;34;20422;-60
2021/03/29 04:40:37;;;;;;;5.53;2.87;;;;;;;;;;4192067;34;20178;-61
2021/03/29 04:43:03;;;;;;;6.07;3.17;;;;;;;;;;4192130;34;20094;-60
2021/03/29 04:45:31;;;;;;;4.43;2.83;;;;;;;;;;4192152;34;20086;-61
2021/03/29 04:47:57;;;;;;;7.97;3.80;;;;;;;;;;4192069;34;20175;-60
2021/03/29 04:50:24;;;;;;;4.78;2.85;;;;;;;;;;4191874;34;20128;-60
2021/03/29 04:52:50;;;;;;;7.90;3.00;;;;;;;;;;4191806;34;20098;-61
2021/03/29 04:55:16;;;;;;;6.47;3.20;;;;;;;;;;4192073;34;20110;-60
2021/03/29 04:57:45;;;;;;;5.80;2.97;;;;;;;;;;4191909;34;20467;-60
2021/03/29 05:00:13;;;;;;;9.60;2.80;;;;;;;;;;4179653;34;20109;-61
2021/03/29 05:02:39;;;;;;;6.78;3.67;;;;;;;;;;4191803;34;20458;-62
2021/03/29 05:05:06;;;;;;;17.52;6.00;;;;;;;;;;4191623;34;20150;-61
2021/03/29 05:07:41;;;;;;;23.83;9.10;;;;;;;;;;4191363;34;20118;-60
2021/03/29 05:10:09;;;;;;;4.90;2.95;;;;;;;;;;4191936;34;20262;-60
2021/03/29 05:12:35;;;;;;;7.65;3.55;;;;;;;;;;4191594;34;20198;-61
2021/03/29 05:15:01;;;;;;;8.05;2.97;;;;;;;;;;4191832;34;20098;-61
2021/03/29 05:17:27;;;;;;;6.87;3.03;;;;;;;;;;4191808;34;20121;-61
2021/03/29 05:19:53;;;;;;;6.75;5.18;;;;;;;;;;4191789;34;20470;-61
2021/03/29 05:22:18;;;;;;;5.47;2.70;;;;;;;;;;4191531;34;20140;-61
2021/03/29 05:24:45;;;;;;;9.77;3.45;;;;;;;;;;4191715;34;20611;-61
2021/03/29 05:27:11;;;;;;;8.43;3.35;;;;;;;;;;4191463;34;20211;-60
2021/03/29 05:29:43;;;;;;;5.30;3.15;;;;;;;;;;4191672;34;20145;-63
2021/03/29 05:32:16;;;;;;;6.35;3.15;;;;;;;;;;4191587;34;20121;-60
2021/03/29 05:34:43;;;;;;;9.20;3.33;;;;;;;;;;4191890;34;20430;-58
2021/03/29 05:37:09;;;;;;;7.45;3.15;;;;;;;;;;4191280;34;20109;-60
2021/03/29 05:39:35;;;;;;;6.07;3.33;;;;;;;;;;4191712;34;20122;-59
2021/03/29 05:42:01;;;;;;;8.85;2.83;;;;;;;;;;4191484;34;20120;-60
2021/03/29 05:44:27;;;;;;;4.62;2.83;;;;;;;;;;4191635;34;20186;-60
2021/03/29 05:46:53;;;;;;;6.78;2.95;;;;;;;;;;4191709;34;20103;-60
2021/03/29 05:49:19;;;;;;;7.22;3.53;;;;;;;;;;4178729;34;20125;-60
2021/03/29 05:51:48;;;;;;;5.53;2.78;;;;;;;;;;4178701;34;20194;-60
2021/03/29 05:54:18;;;;;;;7.07;3.12;;;;;;;;;;4178716;34;20169;-60
2021/03/29 05:56:44;;;;;;;7.82;3.83;;;;;;;;;;4191398;34;20177;-60
2021/03/29 05:59:18;;;;;;;6.07;3.67;;;;;;;;;;4191247;34;20110;-59
2021/03/29 06:01:49;;;;;;;4.75;2.72;;;;;;;;;;4191399;34;20607;-60
2021/03/29 06:04:36;;;;;;;8.23;2.90;;;;;;;;;;4191290;34;20534;-60
2021/03/29 06:07:12;;;;;;;6.03;3.00;;;;;;;;;;4190865;34;20115;-60
2021/03/29 06:09:42;;;;;;;5.00;2.83;;;;;;;;;;4191331;34;20122;-61
2021/03/29 06:12:11;;;;;;;6.40;2.72;;;;;;;;;;4191354;34;20129;-60
2021/03/29 06:14:38;;;;;;;5.68;3.03;;;;;;;;;;4191294;34;20128;-61
2021/03/29 06:17:08;;;;;;;5.00;2.87;;;;;;;;;;4191130;34;20176;-61
2021/03/29 06:19:43;;;;;;;5.07;3.03;;;;;;;;;;4191253;34;20444;-61
2021/03/29 06:22:15;;;;;;;4.10;2.83;;;;;;;;;;4191031;34;20109;-60
2021/03/29 06:24:55;;;;;;;6.32;3.37;;;;;;;;;;4190957;34;20102;-60
2021/03/29 06:27:22;;;;;;;6.12;3.78;;;;;;;;;;4178244;34;20133;-60
2021/03/29 06:29:48;;;;;;;6.87;3.47;;;;;;;;;;4191085;34;20129;-59
2021/03/29 06:32:19;;;;;;;8.80;4.32;;;;;;;;;;4190958;34;20523;-58
2021/03/29 06:34:49;;;;;;;7.70;4.55;;;;;;;;;;4191120;34;20090;-60
2021/03/29 06:37:18;;;;;;;7.72;4.22;;;;;;;;;;4178379;34;20727;-59
2021/03/29 06:39:44;;;;;;;6.07;3.53;;;;;;;;;;4191312;34;20195;-59
2021/03/29 06:42:10;;;;;;;5.60;3.90;;;;;;;;;;4190988;34;20117;-59
2021/03/29 06:44:37;;;;;;;6.65;2.80;;;;;;;;;;4190966;34;20185;-59
2021/03/29 06:47:13;;;;;;;7.20;3.62;;;;;;;;;;4190799;34;20117;-59
2021/03/29 06:49:43;;;;;;;6.90;2.90;;;;;;;;;;4190996;34;20201;-60
2021/03/29 06:52:25;;;;;;;6.30;2.80;;;;;;;;;;4177995;34;20642;-59
2021/03/29 06:54:52;;;;;;;6.28;2.80;;;;;;;;;;4191201;34;20177;-59
2021/03/29 06:57:31;;;;;;;7.57;3.17;;;;;;;;;;4190759;34;20121;-59
2021/03/29 06:59:57;;;;;;;6.03;3.20;;;;;;;;;;4190905;34;20113;-59
2021/03/29 07:02:36;;;;;;;5.47;2.87;;;;;;;;;;4190820;34;20143;-59
2021/03/29 07:05:03;;;;;;;7.20;3.05;;;;;;;;;;4191022;34;20105;-60
2021/03/29 07:07:30;;;;;;;5.97;3.05;;;;;;;;;;4190855;34;20141;-59
2021/03/29 07:09:58;;;;;;;10.35;3.85;;;;;;;;;;4190791;34;20443;-60
2021/03/29 07:12:25;;;;;;;7.65;3.10;;;;;;;;;;4190940;34;20140;-60
2021/03/29 07:14:51;;;;;;;5.12;2.30;;;;;;;;;;4167114;34;20105;-60
2021/03/29 07:17:17;;;;;;;5.05;2.92;;;;;;;;;;4178181;34;20105;-59
2021/03/29 07:19:43;;;;;;;4.72;2.65;;;;;;;;;;4166466;34;20110;-59
2021/03/29 07:22:09;;;;;;;4.70;2.28;;;;;;;;;;4190955;34;20432;-59
2021/03/29 07:24:35;;;;;;;6.22;2.40;;;;;;;;;;4190851;34;20116;-59
2021/03/29 07:27:01;;;;;;;7.35;2.40;;;;;;;;;;4178005;34;20193;-61
2021/03/29 07:29:29;;;;;;;5.45;3.20;;;;;;;;;;4178080;34;20470;-60
2021/03/29 07:31:56;;;;;;;5.05;2.20;;;;;;;;;;4190776;34;20538;-60
2021/03/29 07:34:46;;;;;;;4.72;2.70;;;;;;;;;;4190470;34;20306;-61
2021/03/29 07:37:41;;;;;;;5.05;2.47;;;;;;;;;;4189592;34;20663;-60
2021/03/29 07:40:19;;;;;;;5.18;2.65;;;;;;;;;;4190458;34;20144;-61
2021/03/29 07:42:50;;;;;;;5.85;2.58;;;;;;;;;;4190470;34;20152;-61
2021/03/29 07:45:18;;;;;;;3.83;2.17;;;;;;;;;;4190385;34;20102;-61
2021/03/29 07:47:55;;;;;;;6.20;2.72;;;;;;;;;;4177632;34;20094;-62
2021/03/29 07:50:24;;;;;;;6.32;2.47;;;;;;;;;;4190424;34;20145;-61
2021/03/29 07:52:57;;;;;;;4.87;2.40;;;;;;;;;;4190250;34;20114;-60
2021/03/29 07:55:24;;;;;;;4.25;2.60;;;;;;;;;;4190511;34;20105;-60
2021/03/29 07:57:50;;;;;;;5.72;2.50;;;;;;;;;;4190322;34;20550;-62
2021/03/29 08:00:26;;;;;;;7.47;2.50;;;;;;;;;;4190142;34;20129;-61
2021/03/29 08:02:55;;;;;;;6.50;3.00;;;;;;;;;;4190070;34;20101;-61
2021/03/29 08:05:53;;;;;;;3.58;2.62;;;;;;;;;;4177339;34;20121;-61
2021/03/29 08:08:25;;;;;;;4.12;2.37;;;;;;;;;;4179412;34;20137;-61
2021/03/29 08:10:57;;;;;;;4.15;2.85;;;;;;;;;;4190159;34;20169;-62
2021/03/29 08:13:36;;;;;;;3.65;2.15;;;;;;;;;;4190303;34;20107;-61
2021/03/29 08:16:05;;;;;;;4.87;2.62;;;;;;;;;;4190309;34;20463;-61
2021/03/29 08:19:09;;;;;;;3.95;2.20;;;;;;;;;;4190121;34;20104;-61
2021/03/29 08:21:47;;;;;;;7.78;2.50;;;;;;;;;;4190068;34;20134;-60
2021/03/29 08:24:22;;;;;;;3.30;2.28;;;;;;;;;;4189972;34;20512;-60
2021/03/29 08:26:48;;;;;;;3.20;2.33;;;;;;;;;;4189951;34;20122;-61
2021/03/29 08:29:16;;;;;;;3.50;2.50;;;;;;;;;;4189967;34;20137;-61
2021/03/29 08:32:01;;;;;;;5.75;2.72;;;;;;;;;;4189990;34;20105;-60
2021/03/29 08:34:27;;;;;;;4.85;2.70;;;;;;;;;;4176987;34;20136;-61
2021/03/29 08:36:54;;;;;;;6.25;2.45;;;;;;;;;;4189795;34;20128;-60
2021/03/29 08:39:21;;;;;;;3.45;1.90;;;;;;;;;;4189916;34;20117;-60
2021/03/29 08:41:53;;;;;;;6.62;2.42;;;;;;;;;;4189838;34;20109;-61
2021/03/29 08:44:19;;;;;;;3.70;2.17;;;;;;;;;;4176834;34;20241;-60
2021/03/29 08:46:46;;;;;;;3.67;2.22;;;;;;;;;;4189830;34;20117;-60
2021/03/29 08:49:13;;;;;;;7.82;2.45;;;;;;;;;;4167825;34;20126;-61
2021/03/29 08:51:39;;;;;;;2.17;1.98;;;;;;;;;;4191878;34;20106;-60
2021/03/29 08:54:05;;;;;;;6.72;2.30;;;;;;;;;;4191984;34;20436;-60
2021/03/29 08:56:40;;;;;;;3.58;2.12;;;;;;;;;;4191892;34;20201;-60
2021/03/29 08:59:10;;;;;;;4.37;2.47;;;;;;;;;;4191840;34;20126;-61
2021/03/29 09:01:36;;;;;;;3.12;2.10;;;;;;;;;;4191953;34;20098;-60
2021/03/29 09:04:06;;;;;;;6.12;2.78;;;;;;;;;;4192154;34;20157;-60
2021/03/29 09:06:32;;;;;;;5.50;2.20;;;;;;;;;;4191663;34;20114;-60
2021/03/29 09:08:58;;;;;;;6.25;2.85;;;;;;;;;;4191877;34;20190;-60
2021/03/29 09:11:25;;;;;;;4.18;2.25;;;;;;;;;;4179010;34;20102;-60
2021/03/29 09:13:54;;;;;;;4.25;2.22;;;;;;;;;;4191779;34;20652;-60
2021/03/29 09:16:26;;;;;;;2.60;2.08;;;;;;;;;;4191792;34;20109;-60
2021/03/29 09:18:52;;;;;;;4.82;1.87;;;;;;;;;;4191696;34;20547;-60
2021/03/29 09:21:27;;;;;;;5.40;2.47;;;;;;;;;;4178868;34;20521;-60
2021/03/29 09:23:53;;;;;;;4.85;2.20;;;;;;;;;;4191703;34;20213;-59
2021/03/29 09:26:25;;;;;;;4.32;2.42;;;;;;;;;;4178746;34;20523;-60
2021/03/29 09:28:54;;;;;;;4.50;2.10;;;;;;;;;;4191670;34;20506;-60
2021/03/29 09:31:22;;;;;;;5.65;2.08;;;;;;;;;;4191849;34;20215;-61
2021/03/29 09:33:52;;;;;;;3.47;2.30;;;;;;;;;;4178932;34;20593;-60
2021/03/29 09:36:19;;;;;;;3.55;1.90;;;;;;;;;;4178724;34;20129;-61
2021/03/29 09:38:54;;;;;;;3.58;2.10;;;;;;;;;;4191737;34;20097;-60
2021/03/29 09:41:22;;;;;;;8.02;1.87;;;;;;;;;;4191518;34;20134;-62
2021/03/29 09:43:55;;;;;;;4.35;2.37;;;;;;;;;;4191672;34;20214;-62
2021/03/29 09:46:31;;;;;;;4.00;2.03;;;;;;;;;;4191742;34;20575;-62
2021/03/29 09:49:14;;;;;;;7.35;2.30;;;;;;;;;;4191490;34;20224;-60
2021/03/29 09:51:41;;;;;;;3.58;2.30;;;;;;;;;;4191446;34;20101;-60
2021/03/29 09:54:27;;;;;;;3.28;1.87;;;;;;;;;;4191341;34;20140;-60
2021/03/29 09:56:53;;;;;;;4.00;2.17;;;;;;;;;;4191476;34;20109;-60
2021/03/29 09:59:29;;;;;;;4.28;2.30;;;;;;;;;;4190936;34;20189;-60
2021/03/29 10:01:55;;;;;;;;;;;;;;;;;;4191942;34;20104;-59
2021/03/29 10:04:23;;;;;;;4.18;2.30;;;;;;;;;;4191144;34;20336;-60
2021/03/29 10:06:56;;;;;;;8.20;3.17;;;;;;;;;;4191256;34;20125;-60
2021/03/29 10:09:35;;;;;;;3.45;2.10;;;;;;;;;;4191564;34;20115;-61
2021/03/29 10:12:02;;;;;;;5.70;2.15;;;;;;;;;;4191190;34;20111;-62
2021/03/29 10:14:38;;;;;;;3.45;2.00;;;;;;;;;;4191298;34;20098;-60
2021/03/29 10:17:17;;;;;;;4.25;2.10;;;;;;;;;;4191081;34;20106;-59
2021/03/29 10:19:43;;;;;;;4.32;2.22;;;;;;;;;;4191345;34;20115;-60
2021/03/29 10:22:19;;;;;;;4.37;2.70;;;;;;;;;;4191094;34;20152;-60
2021/03/29 10:25:00;;;;;;;3.75;2.05;;;;;;;;;;4178333;34;20130;-60
2021/03/29 10:27:40;;;;;;;8.68;2.60;;;;;;;;;;4190947;34;20106;-59
2021/03/29 10:30:07;;;;;;;2.92;2.05;;;;;;;;;;4191121;34;20118;-60
2021/03/29 10:32:33;;;;;;;5.87;2.47;;;;;;;;;;4178205;34;20113;-60
2021/03/29 10:34:59;;;;;;;5.20;2.00;;;;;;;;;;4191224;34;20526;-60
2021/03/29 10:37:29;;;;;;;5.28;2.15;;;;;;;;;;4190997;34;20143;-61
2021/03/29 10:39:56;;;;;;;4.32;2.20;;;;;;;;;;4191105;34;20214;-60
2021/03/29 10:42:24;;;;;;;4.35;2.20;;;;;;;;;;4190955;34;20540;-60
2021/03/29 10:44:51;;;;;;;3.97;2.62;;;;;;;;;;4191000;34;20114;-60
2021/03/29 10:47:17;;;;;;;3.92;2.22;;;;;;;;;;4190884;34;20556;-61
2021/03/29 10:49:43;;;;;;;4.43;2.30;;;;;;;;;;4191002;34;20115;-60
2021/03/29 10:52:09;;;;;;;3.37;1.85;;;;;;;;;;4191025;34;20502;-62
2021/03/29 10:54:35;;;;;;;3.90;1.87;;;;;;;;;;4190887;34;20106;-60
2021/03/29 10:57:01;;;;;;;2.55;1.80;;;;;;;;;;4190980;34;20107;-62
2021/03/29 10:59:27;;;;;;;3.28;2.05;;;;;;;;;;4190947;34;20114;-60
2021/03/29 11:01:53;;;;;;;4.25;2.00;;;;;;;;;;4190924;34;20205;-60
2021/03/29 11:04:19;;;;;;;4.35;1.80;;;;;;;;;;4191041;34;20137;-60
2021/03/29 11:06:45;;;;;;;4.40;2.78;;;;;;;;;;4190728;34;20119;-60
2021/03/29 11:09:10;;;;;;;2.45;1.70;;;;;;;;;;4190724;34;20142;-60
2021/03/29 11:11:36;;;;;;;5.50;2.03;;;;;;;;;;4190443;34;20218;-60
2021/03/29 11:14:03;;;;;;;3.30;2.20;;;;;;;;;;4190804;34;20545;-60
2021/03/29 11:16:29;;;;;;;3.92;2.10;;;;;;;;;;4190857;34;20107;-60
2021/03/29 11:18:55;;;;;;;3.78;1.90;;;;;;;;;;4190906;34;20208;-60
2021/03/29 11:21:21;;;;;;;2.70;2.00;;;;;;;;;;4190568;34;20121;-60
2021/03/29 11:23:47;;;;;;;4.22;2.20;;;;;;;;;;4190636;34;20196;-61
2021/03/29 11:26:13;;;;;;;3.65;2.20;;;;;;;;;;4190603;34;20129;-59
2021/03/29 11:28:39;;;;;;;4.15;2.20;;;;;;;;;;4190839;34;20230;-60
2021/03/29 11:31:05;;;;;;;4.93;2.10;;;;;;;;;;4190579;34;20105;-60
2021/03/29 11:33:31;;;;;;;3.25;1.95;;;;;;;;;;4177895;34;20109;-60
2021/03/29 11:35:57;;;;;;;5.15;2.00;;;;;;;;;;4190694;34;20618;-60
2021/03/29 11:38:22;;;;;;;3.50;2.03;;;;;;;;;;4190564;34;20118;-60
2021/03/29 11:40:49;;;;;;;3.12;1.90;;;;;;;;;;4190565;34;20102;-60
2021/03/29 11:43:15;;;;;;;3.40;2.12;;;;;;;;;;4190835;34;20152;-60
2021/03/29 11:45:41;;;;;;;4.32;1.90;;;;;;;;;;4190336;34;20209;-61
2021/03/29 11:48:07;;;;;;;3.87;2.28;;;;;;;;;;4190565;34;20546;-61
2021/03/29 11:50:33;;;;;;;4.82;2.83;;;;;;;;;;4190464;34;20133;-60
2021/03/29 11:52:59;;;;;;;4.00;2.42;;;;;;;;;;4190652;34;20148;-61
2021/03/29 11:55:26;;;;;;;4.12;2.40;;;;;;;;;;4190382;34;20145;-61
2021/03/29 11:57:54;;;;;;;6.35;3.58;;;;;;;;;;4190515;34;20106;-61
2021/03/29 12:00:46;;;;;;;3.78;2.40;;;;;;;;;;4190302;34;20514;-59
2021/03/29 12:06:07;;;;;;;4.22;1.70;;;;;;;;;;4190177;34;20110;-60
2021/03/29 12:08:44;;;;;;;3.35;1.80;;;;;;;;;;4190369;34;20148;-60
2021/03/29 12:13:57;;;;;;;3.30;1.90;;;;;;;;;;4190428;34;20462;-60
2021/03/29 12:16:28;;;;;;;2.17;1.65;;;;;;;;;;4190059;34;20121;-60
2021/03/29 12:18:57;;;;;;;3.33;2.10;;;;;;;;;;4190285;34;20428;-60
2021/03/29 12:21:25;;;;;;;4.18;2.33;;;;;;;;;;4190126;34;20546;-60
2021/03/29 12:23:54;;;;;;;2.37;1.85;;;;;;;;;;4191841;34;20526;-60
2021/03/29 12:26:23;;;;;;;4.47;1.90;;;;;;;;;;4180010;34;20121;-60
2021/03/29 12:28:50;;;;;;;4.47;2.35;;;;;;;;;;4192568;34;20122;-61
2021/03/29 12:31:16;;;;;;;5.15;2.22;;;;;;;;;;4168589;34;20266;-60
2021/03/29 12:33:42;;;;;;;3.53;1.83;;;;;;;;;;4179451;34;20126;-60
2021/03/29 12:36:09;;;;;;;3.25;1.90;;;;;;;;;;4179781;34;20108;-60
2021/03/29 12:38:37;;;;;;;3.55;1.92;;;;;;;;;;4192477;34;20129;-60
2021/03/29 12:41:05;;;;;;;4.10;2.00;;;;;;;;;;4192228;34;20104;-60
2021/03/29 12:46:04;;;;;;;7.18;2.15;;;;;;;;;;4192275;34;20125;-60
2021/03/29 12:48:31;;;;;;;3.80;2.28;;;;;;;;;;4192202;34;20091;-60
2021/03/29 12:51:06;;;;;;;4.62;2.12;;;;;;;;;;4192112;34;20186;-60
2021/03/29 12:53:32;;;;;;;4.70;2.00;;;;;;;;;;4192196;34;20213;-59
2021/03/29 12:55:59;;;;;;;5.37;2.47;;;;;;;;;;4179387;34;20744;-59
2021/03/29 12:58:25;;;;;;;4.18;1.90;;;;;;;;;;4192331;34;20148;-59
2021/03/29 13:00:51;;;;;;;3.47;2.08;;;;;;;;;;4191950;34;20581;-60
2021/03/29 13:03:18;;;;;;;5.15;2.08;;;;;;;;;;4192241;34;20165;-60
2021/03/29 13:08:14;;;;;;;5.62;2.05;;;;;;;;;;4192052;34;20531;-59
2021/03/29 13:11:05;;;;;;;3.58;2.05;;;;;;;;;;4179841;34;20588;-60
2021/03/29 13:13:33;;;;;;;4.50;1.98;;;;;;;;;;4192047;34;20634;-59
2021/03/29 13:15:59;;;;;;;2.83;1.90;;;;;;;;;;4192056;34;20125;-59
2021/03/29 13:18:25;;;;;;;3.17;1.95;;;;;;;;;;4192168;34;20122;-59
2021/03/29 13:20:51;;;;;;;2.85;1.98;;;;;;;;;;4179418;34;20193;-59
2021/03/29 13:23:17;;;;;;;3.60;1.83;;;;;;;;;;4191937;34;20483;-59
2021/03/29 13:25:44;;;;;;;4.40;2.12;;;;;;;;;;4191849;34;20121;-59
2021/03/29 13:28:10;;;;;;;3.15;2.20;;;;;;;;;;4191859;34;20513;-58
2021/03/29 13:30:36;;;;;;;4.60;2.33;;;;;;;;;;4178943;34;20133;-59
2021/03/29 13:33:03;;;;;;;3.55;1.90;;;;;;;;;;4191789;34;20136;-59
2021/03/29 13:35:29;;;;;;;2.75;1.85;;;;;;;;;;4190832;34;20121;-59
2021/03/29 13:37:55;;;;;;;3.30;2.00;;;;;;;;;;4191803;34;20122;-58
2021/03/29 13:40:22;;;;;;;3.65;1.80;;;;;;;;;;4167606;34;20126;-59
2021/03/29 13:42:48;;;;;;;3.62;2.30;;;;;;;;;;4191735;34;20118;-60
2021/03/29 13:45:14;;;;;;;9.07;3.42;;;;;;;;;;4191475;34;20125;-59
2021/03/29 13:47:41;;;;;;;5.85;2.45;;;;;;;;;;4191934;34;20145;-58
2021/03/29 13:50:07;;;;;;;4.72;1.70;;;;;;;;;;4191635;34;20130;-60
2021/03/29 13:52:34;;;;;;;2.55;1.70;;;;;;;;;;4178875;34;20098;-60
2021/03/29 13:55:00;;;;;;;3.08;1.87;;;;;;;;;;4191887;34;20090;-60
2021/03/29 13:57:27;;;;;;;3.35;1.70;;;;;;;;;;4191453;34;20130;-60
2021/03/29 13:59:55;;;;;;;1.73;1.48;;;;;;;;;;4191703;34;20116;-61
2021/03/29 14:02:20;;;;;;;3.00;1.80;;;;;;;;;;4191532;34;20547;-60
2021/03/29 14:04:48;;;;;;;6.82;2.72;;;;;;;;;;4178313;34;20106;-60
2021/03/29 14:07:14;;;;;;;4.37;2.08;;;;;;;;;;4191117;34;20194;-60
2021/03/29 14:09:40;;;;;;;2.62;2.20;;;;;;;;;;4191423;34;20193;-60
2021/03/29 14:12:09;;;;;;;5.37;2.03;;;;;;;;;;4191516;34;20117;-60
2021/03/29 14:14:35;;;;;;;2.10;1.70;;;;;;;;;;4191345;34;20866;-59
2021/03/29 14:17:02;;;;;;;2.60;1.60;;;;;;;;;;4191249;34;20110;-60
2021/03/29 14:19:28;;;;;;;4.07;1.95;;;;;;;;;;4191311;34;20185;-59
2021/03/29 14:21:55;;;;;;;2.30;1.75;;;;;;;;;;4191304;34;20129;-59
2021/03/29 14:24:21;;;;;;;4.25;2.17;;;;;;;;;;4191275;34;20745;-59
2021/03/29 14:26:47;;;;;;;5.82;2.55;;;;;;;;;;4191372;34;20125;-59
2021/03/29 14:29:13;;;;;;;4.87;2.20;;;;;;;;;;4191252;34;20126;-60
2021/03/29 14:31:40;;;;;;;5.43;2.28;;;;;;;;;;4191146;34;20568;-59
2021/03/29 14:34:09;;;;;;;5.45;3.03;;;;;;;;;;4191104;34;20554;-60
2021/03/29 14:39:35;;;;;;;7.43;2.95;;;;;;;;;;4191152;34;20082;-59
2021/03/29 14:42:15;;;;;;;4.65;2.35;;;;;;;;;;4190999;34;20208;-61
2021/03/29 14:44:41;;;;;;;4.75;3.08;;;;;;;;;;4191141;34;20110;-59
2021/03/29 14:47:09;;;;;;;9.65;5.30;;;;;;;;;;4190669;34;20106;-61
2021/03/29 14:49:35;;;;;;;6.50;4.30;;;;;;;;;;4191184;34;20094;-59
2021/03/29 14:52:06;;;;;;;6.82;4.90;;;;;;;;;;4191035;34;20113;-63
2021/03/29 14:54:33;;;;;;;8.68;5.45;;;;;;;;;;4191099;34;20658;-59
2021/03/29 14:56:59;;;;;;;6.03;4.72;;;;;;;;;;4190937;34;20129;-61
2021/03/29 14:59:25;;;;;;;14.93;13.30;;;;;;;;;;4190890;34;20137;-61
2021/03/29 15:01:55;;;;;;;16.50;14.02;;;;;;;;;;4191129;34;20209;-61
2021/03/29 15:04:45;;;;;;;16.52;10.25;;;;;;;;;;4190927;34;20108;-62
2021/03/29 15:09:39;;;;;;;6.65;4.57;;;;;;;;;;4191126;34;20148;-61
2021/03/29 15:12:07;;;;;;;7.10;3.40;;;;;;;;;;4190649;34;20225;-60